createdAt,value
2018-07-14T00:00:18.469Z,48.09
2018-07-14T00:02:47.236Z,48.83
2018-07-14T00:05:15.951Z,49.04
2018-07-14T00:07:44.848Z,49.05
2018-07-14T00:10:13.695Z,49.38
2018-07-14T00:12:42.569Z,49.57
2018-07-14T00:15:11.500Z,50.10
2018-07-14T00:17:40.457Z,50.06
2018-07-14T00:20:09.139Z,49.80
2018-07-14T00:22:37.961Z,49.38
2018-07-14T00:25:07.036Z,50.01
2018-07-14T00:27:35.704Z,49.78
2018-07-14T00:30:04.804Z,49.55
2018-07-14T00:32:33.470Z,49.93
2018-07-14T00:35:02.225Z,49.84
2018-07-14T00:37:30.959Z,50.00
2018-07-14T00:40:00.109Z,50.37
2018-07-14T00:42:28.880Z,50.00
2018-07-14T00:44:57.665Z,50.34
2018-07-14T00:47:26.467Z,50.87
2018-07-14T00:49:55.293Z,51.25
2018-07-14T00:52:24.345Z,50.87
2018-07-14T00:54:53.327Z,50.82
2018-07-14T00:57:22.153Z,51.16
2018-07-14T00:59:51.029Z,50.85
2018-07-14T01:02:19.716Z,50.89
2018-07-14T01:04:48.336Z,51.63
2018-07-14T01:07:17.683Z,51.40
2018-07-14T01:09:46.280Z,51.16
2018-07-14T01:12:15.008Z,51.19
2018-07-14T01:14:43.864Z,50.59
2018-07-14T01:17:12.675Z,51.16
2018-07-14T01:19:41.626Z,50.52
2018-07-14T01:22:10.535Z,50.87
2018-07-14T01:24:39.348Z,50.69
2018-07-14T01:27:08.040Z,50.61
2018-07-14T01:29:36.783Z,49.75
2018-07-14T01:32:05.575Z,50.19
2018-07-14T01:34:34.201Z,49.99
2018-07-14T01:37:02.850Z,49.90
2018-07-14T01:39:31.600Z,50.36
2018-07-14T01:42:00.481Z,49.81
2018-07-14T01:44:29.608Z,50.74
2018-07-14T01:46:58.283Z,50.54
2018-07-14T01:49:27.030Z,50.10
2018-07-14T01:51:56.175Z,50.09
2018-07-14T01:54:25.058Z,50.41
2018-07-14T01:56:53.856Z,51.07
2018-07-14T01:59:22.768Z,50.91
2018-07-14T02:01:51.396Z,50.66
2018-07-14T02:04:20.390Z,51.44
2018-07-14T02:06:49.099Z,51.42
2018-07-14T02:09:17.862Z,52.09
2018-07-14T02:11:46.776Z,51.61
2018-07-14T02:14:15.453Z,51.34
2018-07-14T02:16:44.509Z,51.66
2018-07-14T02:19:13.425Z,52.27
2018-07-14T02:21:42.003Z,51.79
2018-07-14T02:24:10.712Z,52.44
2018-07-14T02:26:39.367Z,52.03
2018-07-14T02:29:08.302Z,51.89
2018-07-14T02:31:36.935Z,52.69
2018-07-14T02:34:05.810Z,52.06
2018-07-14T02:36:34.613Z,52.17
2018-07-14T02:39:03.943Z,52.94
2018-07-14T02:41:32.661Z,52.40
2018-07-14T02:44:01.439Z,53.65
2018-07-14T02:46:30.116Z,53.17
2018-07-14T02:48:59.279Z,53.17
2018-07-14T02:51:28.351Z,53.29
2018-07-14T02:53:57.009Z,53.51
2018-07-14T02:56:25.690Z,52.62
2018-07-14T02:58:55.044Z,53.16
2018-07-14T03:01:23.791Z,52.92
2018-07-14T03:03:52.586Z,53.43
2018-07-14T03:06:21.481Z,53.00
2018-07-14T03:08:50.160Z,53.27
2018-07-14T03:11:18.951Z,52.66
2018-07-14T03:13:48.042Z,53.66
2018-07-14T03:16:16.935Z,53.25
2018-07-14T03:18:45.735Z,52.60
2018-07-14T03:21:14.589Z,52.78
2018-07-14T03:23:43.187Z,52.95
2018-07-14T03:26:12.147Z,52.37
2018-07-14T03:28:41.232Z,52.94
2018-07-14T03:31:10.058Z,53.39
2018-07-14T03:33:38.782Z,53.02
2018-07-14T03:36:07.512Z,53.02
2018-07-14T03:38:36.336Z,53.43
2018-07-14T03:41:05.279Z,53.00
2018-07-14T03:43:34.664Z,53.77
2018-07-14T03:46:03.449Z,53.44
2018-07-14T03:48:32.299Z,54.02
2018-07-14T03:51:01.119Z,54.59
2018-07-14T03:53:29.825Z,54.37
2018-07-14T03:55:58.691Z,54.72
2018-07-14T03:58:27.687Z,55.07
2018-07-14T04:00:56.302Z,55.44
2018-07-14T04:03:25.212Z,55.63
2018-07-14T04:05:54.233Z,55.52
2018-07-14T04:08:23.011Z,55.96
2018-07-14T04:10:52.144Z,55.65
2018-07-14T04:13:21.032Z,56.06
2018-07-14T04:15:49.895Z,56.52
2018-07-14T04:18:18.840Z,56.30
2018-07-14T04:20:47.995Z,56.08
2018-07-14T04:23:16.801Z,56.06
2018-07-14T04:25:45.558Z,55.93
2018-07-14T04:28:14.439Z,55.90
2018-07-14T04:30:43.104Z,56.09
2018-07-14T04:33:12.048Z,55.73
2018-07-14T04:35:40.994Z,55.54
2018-07-14T04:38:09.623Z,55.35
2018-07-14T04:40:38.867Z,55.74
2018-07-14T04:43:07.987Z,55.80
2018-07-14T04:45:36.747Z,55.74
2018-07-14T04:48:05.420Z,55.61
2018-07-14T04:50:34.436Z,55.41
2018-07-14T04:53:03.331Z,55.25
2018-07-14T04:55:32.015Z,55.28
2018-07-14T04:58:00.853Z,54.72
2018-07-14T05:00:29.736Z,54.59
2018-07-14T05:02:58.523Z,54.71
2018-07-14T05:05:27.232Z,54.88
2018-07-14T05:07:56.084Z,54.31
2018-07-14T05:10:25.680Z,54.91
2018-07-14T05:12:54.791Z,55.11
2018-07-14T05:15:23.547Z,54.12
2018-07-14T05:17:52.585Z,53.65
2018-07-14T05:20:21.227Z,53.82
2018-07-14T05:22:49.812Z,53.31
2018-07-14T05:25:18.660Z,52.97
2018-07-14T05:27:47.477Z,53.24
2018-07-14T05:30:16.056Z,52.72
2018-07-14T05:32:45.435Z,51.52
2018-07-14T05:35:16.639Z,50.96
2018-07-14T05:37:46.292Z,52.13
2018-07-14T05:40:14.980Z,52.94
2018-07-14T05:42:43.737Z,51.91
2018-07-14T05:45:12.352Z,50.47
2018-07-14T05:47:40.954Z,50.51
2018-07-14T05:50:09.782Z,50.24
2018-07-14T05:52:38.418Z,49.47
2018-07-14T05:55:06.996Z,49.06
2018-07-14T05:57:36.108Z,49.45
2018-07-14T06:00:05.664Z,48.54
2018-07-14T06:02:34.439Z,48.20
2018-07-14T06:05:03.219Z,47.96
2018-07-14T06:07:31.856Z,47.82
2018-07-14T06:10:00.556Z,48.34
2018-07-14T06:12:29.586Z,46.65
2018-07-14T06:14:58.246Z,46.57
2018-07-14T06:17:26.996Z,46.01
2018-07-14T06:19:55.743Z,45.58
2018-07-14T06:22:24.413Z,46.10
2018-07-14T06:24:53.104Z,45.07
2018-07-14T06:27:21.903Z,44.11
2018-07-14T06:29:50.603Z,43.85
2018-07-14T06:32:19.476Z,43.29
2018-07-14T06:34:48.115Z,43.37
2018-07-14T06:37:16.827Z,42.90
2018-07-14T06:39:45.752Z,42.05
2018-07-14T06:42:14.428Z,42.93
2018-07-14T06:44:43.252Z,41.64
2018-07-14T06:47:12.665Z,41.06
2018-07-14T06:49:41.710Z,40.33
2018-07-14T06:52:10.512Z,40.50
2018-07-14T06:54:39.173Z,38.42
2018-07-14T06:57:07.929Z,36.39
2018-07-14T06:59:36.711Z,36.23
2018-07-14T07:02:06.743Z,37.41
2018-07-14T07:04:36.864Z,37.23
2018-07-14T07:07:06.959Z,35.67
2018-07-14T07:09:37.411Z,35.32
2018-07-14T07:12:06.648Z,35.56
2018-07-14T07:14:36.202Z,35.02
2018-07-14T07:17:06.099Z,33.80
2018-07-14T07:19:36.908Z,31.77
2018-07-14T07:22:06.962Z,32.71
2018-07-14T07:24:36.840Z,31.61
2018-07-14T07:27:06.960Z,30.32
2018-07-14T07:29:36.820Z,30.52
2018-07-14T07:32:06.830Z,28.98
2018-07-14T07:34:35.497Z,29.02
2018-07-14T07:37:10.119Z,30.62
2018-07-14T07:39:40.358Z,30.25
2018-07-14T07:42:11.039Z,31.95
2018-07-14T07:44:42.391Z,30.87
2018-07-14T07:47:14.567Z,30.04
2018-07-14T07:49:45.176Z,30.63
2018-07-14T07:52:15.596Z,30.99
2018-07-14T07:54:45.511Z,29.73
2018-07-14T07:57:15.079Z,31.89
2018-07-14T07:59:46.178Z,31.46
2018-07-14T08:02:15.371Z,30.13
2018-07-14T08:04:45.740Z,29.52
2018-07-14T08:07:15.704Z,30.52
2018-07-14T08:09:45.772Z,29.20
2018-07-14T08:12:16.636Z,29.58
2018-07-14T08:14:46.875Z,29.53
2018-07-14T08:17:15.439Z,30.43
2018-07-14T08:19:48.399Z,30.84
2018-07-14T08:22:17.875Z,28.50
2018-07-14T08:24:46.632Z,27.75
2018-07-14T08:27:15.756Z,28.53
2018-07-14T08:29:45.310Z,26.57
2018-07-14T08:32:15.422Z,25.68
2018-07-14T08:34:45.224Z,27.13
2018-07-14T08:37:14.534Z,28.47
2018-07-14T08:39:44.910Z,27.87
2018-07-14T08:42:16.157Z,27.42
2018-07-14T08:44:45.223Z,27.11
2018-07-14T08:47:14.683Z,27.69
2018-07-14T08:49:45.112Z,24.83
2018-07-14T08:52:15.519Z,26.15
2018-07-14T08:54:45.862Z,23.41
2018-07-14T08:57:17.385Z,24.28
2018-07-14T08:59:46.519Z,24.10
2018-07-14T09:02:17.289Z,24.01
2018-07-14T09:04:45.980Z,22.24
2018-07-14T09:07:16.232Z,23.44
2018-07-14T09:09:47.294Z,24.29
2018-07-14T09:12:18.692Z,22.60
2018-07-14T09:14:49.837Z,21.77
2018-07-14T09:17:20.175Z,21.79
2018-07-14T09:19:50.516Z,22.17
2018-07-14T09:22:21.897Z,23.17
2018-07-14T09:24:51.502Z,23.49
2018-07-14T09:27:21.085Z,23.51
2018-07-14T09:29:49.655Z,21.86
2018-07-14T09:32:18.342Z,20.33
2018-07-14T09:34:47.904Z,20.95
2018-07-14T09:37:18.257Z,20.08
2018-07-14T09:39:48.351Z,19.72
2018-07-14T09:42:18.651Z,19.63
2018-07-14T09:44:49.612Z,17.86
2018-07-14T09:47:19.771Z,18.43
2018-07-14T09:49:48.411Z,18.18
2018-07-14T09:52:17.233Z,17.45
2018-07-14T09:54:46.761Z,16.37
2018-07-14T09:57:16.555Z,15.16
2018-07-14T09:59:46.406Z,17.48
2018-07-14T10:02:16.171Z,17.54
2018-07-14T10:04:45.604Z,16.76
2018-07-14T10:07:16.404Z,16.31
2018-07-14T10:09:45.833Z,15.11
2018-07-14T10:12:16.625Z,15.84
2018-07-14T10:14:46.220Z,14.96
2018-07-14T10:17:16.140Z,17.42
2018-07-14T10:19:46.364Z,14.70
2018-07-14T10:22:15.825Z,15.90
2018-07-14T10:24:45.212Z,15.04
2018-07-14T10:27:13.777Z,15.11
2018-07-14T10:29:42.504Z,14.69
2018-07-14T10:32:11.133Z,14.08
2018-07-14T10:34:39.807Z,15.00
2018-07-14T10:37:08.509Z,14.55
2018-07-14T10:39:37.481Z,13.08
2018-07-14T10:42:06.129Z,15.03
2018-07-14T10:44:34.673Z,13.65
2018-07-14T10:47:03.463Z,12.52
2018-07-14T10:49:32.263Z,11.33
2018-07-14T10:52:00.829Z,12.37
2018-07-14T10:54:29.371Z,12.82
2018-07-14T10:56:58.068Z,13.41
2018-07-14T10:59:26.674Z,12.42
2018-07-14T11:01:55.449Z,12.71
2018-07-14T11:04:24.869Z,12.59
2018-07-14T11:06:53.673Z,12.80
2018-07-14T11:09:22.244Z,13.84
2018-07-14T11:11:51.908Z,12.08
2018-07-14T11:14:20.576Z,12.53
2018-07-14T11:16:51.034Z,11.97
2018-07-14T11:19:19.880Z,11.30
2018-07-14T11:21:48.799Z,12.08
2018-07-14T11:24:18.088Z,12.95
2018-07-14T11:26:46.789Z,13.79
2018-07-14T11:29:15.680Z,15.56
2018-07-14T11:31:44.548Z,12.88
2018-07-14T11:34:13.156Z,11.29
2018-07-14T11:36:41.893Z,11.47
2018-07-14T11:39:11.025Z,13.17
2018-07-14T11:41:39.627Z,11.86
2018-07-14T11:44:08.407Z,10.92
2018-07-14T11:46:37.123Z,9.78
2018-07-14T11:49:05.826Z,9.16
2018-07-14T11:51:34.568Z,8.39
2018-07-14T11:54:03.440Z,10.07
2018-07-14T11:56:32.074Z,10.51
2018-07-14T11:59:00.736Z,13.10
2018-07-14T12:01:29.648Z,14.33
2018-07-14T12:03:58.277Z,15.77
2018-07-14T12:06:26.923Z,15.00
2018-07-14T12:08:55.505Z,12.91
2018-07-14T12:11:24.231Z,12.42
2018-07-14T12:13:52.884Z,12.52
2018-07-14T12:16:21.532Z,12.83
2018-07-14T12:18:50.148Z,11.48
2018-07-14T12:21:18.760Z,12.00
2018-07-14T12:23:47.547Z,11.54
2018-07-14T12:26:16.540Z,10.07
2018-07-14T12:28:45.100Z,9.99
2018-07-14T12:31:13.792Z,10.00
2018-07-14T12:33:42.499Z,10.60
2018-07-14T12:36:11.266Z,10.47
2018-07-14T12:38:39.896Z,9.71
2018-07-14T12:41:08.584Z,9.93
2018-07-14T12:43:37.540Z,9.61
2018-07-14T12:46:06.372Z,9.57
2018-07-14T12:48:35.021Z,8.47
2018-07-14T12:51:03.692Z,7.68
2018-07-14T12:53:32.511Z,10.17
2018-07-14T12:56:01.052Z,11.97
2018-07-14T12:58:29.701Z,12.48
2018-07-14T13:00:58.583Z,12.81
2018-07-14T13:03:27.616Z,13.34
2018-07-14T13:05:56.479Z,14.07
2018-07-14T13:08:25.148Z,12.94
2018-07-14T13:10:53.803Z,12.86
2018-07-14T13:13:22.424Z,13.13
2018-07-14T13:15:51.542Z,11.55
2018-07-14T13:18:20.172Z,12.87
2018-07-14T13:20:48.903Z,12.66
2018-07-14T13:23:17.692Z,11.94
2018-07-14T13:25:46.324Z,11.46
2018-07-14T13:28:15.158Z,12.06
2018-07-14T13:30:43.814Z,10.84
2018-07-14T13:33:12.471Z,11.26
2018-07-14T13:35:41.302Z,11.52
2018-07-14T13:38:09.968Z,11.54
2018-07-14T13:40:38.675Z,12.09
2018-07-14T13:43:07.210Z,12.19
2018-07-14T13:45:35.834Z,12.61
2018-07-14T13:48:04.587Z,11.33
2018-07-14T13:50:33.163Z,11.18
2018-07-14T13:53:02.032Z,12.57
2018-07-14T13:55:30.736Z,13.33
2018-07-14T13:57:59.353Z,12.14
2018-07-14T14:00:27.971Z,12.85
2018-07-14T14:02:56.587Z,13.73
2018-07-14T14:05:25.328Z,15.50
2018-07-14T14:07:54.312Z,16.71
2018-07-14T14:10:23.091Z,17.05
2018-07-14T14:12:51.751Z,17.44
2018-07-14T14:15:20.679Z,17.67
2018-07-14T14:17:49.316Z,17.12
2018-07-14T14:20:18.236Z,18.28
2018-07-14T14:22:47.081Z,17.21
2018-07-14T14:25:15.749Z,18.29
2018-07-14T14:27:44.408Z,17.91
2018-07-14T14:30:13.161Z,16.97
2018-07-14T14:32:41.905Z,15.21
2018-07-14T14:35:10.708Z,15.16
2018-07-14T14:37:39.668Z,15.49
2018-07-14T14:40:09.968Z,16.07
2018-07-14T14:42:38.791Z,16.37
2018-07-14T14:45:07.716Z,16.92
2018-07-14T14:47:36.459Z,17.82
2018-07-14T14:50:05.361Z,17.93
2018-07-14T14:52:33.960Z,17.23
2018-07-14T14:55:02.488Z,18.73
2018-07-14T14:57:31.450Z,18.08
2018-07-14T15:00:00.117Z,19.38
2018-07-14T15:02:28.948Z,19.22
2018-07-14T15:04:57.777Z,19.15
2018-07-14T15:07:26.773Z,19.42
2018-07-14T15:09:55.427Z,19.88
2018-07-14T15:12:24.455Z,18.97
2018-07-14T15:14:53.093Z,19.67
2018-07-14T15:17:21.631Z,20.09
2018-07-14T15:19:50.321Z,19.53
2018-07-14T15:22:18.932Z,20.34
2018-07-14T15:24:47.536Z,20.80
2018-07-14T15:27:16.267Z,20.90
2018-07-14T15:29:45.148Z,21.07
2018-07-14T15:32:13.934Z,20.19
2018-07-14T15:34:42.726Z,19.63
2018-07-14T15:37:11.282Z,20.54
2018-07-14T15:39:40.249Z,21.14
2018-07-14T15:42:08.952Z,20.89
2018-07-14T15:44:37.860Z,20.97
2018-07-14T15:47:06.883Z,20.65
2018-07-14T15:49:35.775Z,20.37
2018-07-14T15:52:04.540Z,20.28
2018-07-14T15:54:33.211Z,19.29
2018-07-14T15:57:02.083Z,20.17
2018-07-14T15:59:30.671Z,20.15
2018-07-14T16:01:59.481Z,19.86
2018-07-14T16:04:28.071Z,20.77
2018-07-14T16:06:56.890Z,21.35
2018-07-14T16:09:25.692Z,21.15
2018-07-14T16:11:54.643Z,21.27
2018-07-14T16:14:23.304Z,20.50
2018-07-14T16:16:52.072Z,20.41
2018-07-14T16:19:20.655Z,22.11
2018-07-14T16:21:49.241Z,22.02
2018-07-14T16:24:17.840Z,22.07
2018-07-14T16:26:46.759Z,21.82
2018-07-14T16:29:15.395Z,22.63
2018-07-14T16:31:43.992Z,22.15
2018-07-14T16:34:13.033Z,22.49
2018-07-14T16:36:41.735Z,22.86
2018-07-14T16:39:11.111Z,22.83
2018-07-14T16:41:40.723Z,22.59
2018-07-14T16:44:09.583Z,22.90
2018-07-14T16:46:38.168Z,22.69
2018-07-14T16:49:07.007Z,21.74
2018-07-14T16:51:35.636Z,22.45
2018-07-14T16:54:05.622Z,22.12
2018-07-14T16:56:34.228Z,21.51
2018-07-14T16:59:03.082Z,21.27
2018-07-14T17:01:31.807Z,22.04
2018-07-14T17:04:01.062Z,22.63
2018-07-14T17:06:29.790Z,22.41
2018-07-14T17:08:58.447Z,23.44
2018-07-14T17:11:27.048Z,22.55
2018-07-14T17:13:55.648Z,22.67
2018-07-14T17:16:24.611Z,23.24
2018-07-14T17:18:53.264Z,23.43
2018-07-14T17:21:22.054Z,23.36
2018-07-14T17:23:50.704Z,24.19
2018-07-14T17:26:19.560Z,23.85
2018-07-14T17:28:48.451Z,24.32
2018-07-14T17:31:17.402Z,23.65
2018-07-14T17:33:46.304Z,23.73
2018-07-14T17:36:14.991Z,23.49
2018-07-14T17:38:43.598Z,24.65
2018-07-14T17:41:12.468Z,24.74
2018-07-14T17:43:41.248Z,24.13
2018-07-14T17:46:10.122Z,24.74
2018-07-14T17:48:38.899Z,25.30
2018-07-14T17:51:07.748Z,24.64
2018-07-14T17:53:36.685Z,24.41
2018-07-14T17:56:05.727Z,25.20
2018-07-14T17:58:34.348Z,25.32
2018-07-14T18:01:03.408Z,25.96
2018-07-14T18:03:32.192Z,25.17
2018-07-14T18:06:00.887Z,26.34
2018-07-14T18:08:29.743Z,26.21
2018-07-14T18:10:58.535Z,26.47
2018-07-14T18:13:27.215Z,26.47
2018-07-14T18:15:56.013Z,27.11
2018-07-14T18:18:25.207Z,27.37
2018-07-14T18:20:54.403Z,26.92
2018-07-14T18:23:27.259Z,27.48
2018-07-14T18:25:56.060Z,27.14
2018-07-14T18:28:26.020Z,28.41
2018-07-14T18:30:55.704Z,27.67
2018-07-14T18:33:26.259Z,28.15
2018-07-14T18:35:54.952Z,28.49
2018-07-14T18:38:23.780Z,28.47
2018-07-14T18:40:52.544Z,28.10
2018-07-14T18:43:21.414Z,29.01
2018-07-14T18:45:50.368Z,29.82
2018-07-14T18:48:19.184Z,30.69
2018-07-14T18:50:47.955Z,30.59
2018-07-14T18:53:16.607Z,30.20
2018-07-14T18:55:45.524Z,30.20
2018-07-14T18:58:14.508Z,30.77
2018-07-14T19:00:43.190Z,31.17
2018-07-14T19:03:12.019Z,31.16
2018-07-14T19:05:41.002Z,32.20
2018-07-14T19:08:09.631Z,32.77
2018-07-14T19:10:38.772Z,32.31
2018-07-14T19:13:07.735Z,32.22
2018-07-14T19:15:36.324Z,32.86
2018-07-14T19:18:05.156Z,32.75
2018-07-14T19:20:33.724Z,33.26
2018-07-14T19:23:02.459Z,34.22
2018-07-14T19:25:31.556Z,34.38
2018-07-14T19:28:00.240Z,33.54
2018-07-14T19:30:28.851Z,34.27
2018-07-14T19:32:57.552Z,34.52
2018-07-14T19:35:26.315Z,33.56
2018-07-14T19:37:55.050Z,34.04
2018-07-14T19:40:24.041Z,34.68
2018-07-14T19:42:52.973Z,35.12
2018-07-14T19:45:21.618Z,35.81
2018-07-14T19:47:50.428Z,37.64
2018-07-14T19:50:19.271Z,37.58
2018-07-14T19:52:48.049Z,37.30
2018-07-14T19:55:16.723Z,38.19
2018-07-14T19:57:45.516Z,37.87
2018-07-14T20:00:14.204Z,37.29
2018-07-14T20:02:42.968Z,37.48
2018-07-14T20:05:11.716Z,37.59
2018-07-14T20:07:40.492Z,37.49
2018-07-14T20:10:09.168Z,38.04
2018-07-14T20:12:37.932Z,38.12
2018-07-14T20:15:06.670Z,38.16
2018-07-14T20:17:35.635Z,38.14
2018-07-14T20:20:04.544Z,37.99
2018-07-14T20:22:33.186Z,39.69
2018-07-14T20:25:02.147Z,38.66
2018-07-14T20:27:30.772Z,39.08
2018-07-14T20:29:59.525Z,39.27
2018-07-14T20:32:28.378Z,40.27
2018-07-14T20:34:57.049Z,40.38
2018-07-14T20:37:25.700Z,40.99
2018-07-14T20:39:54.410Z,41.05
2018-07-14T20:42:23.094Z,41.96
2018-07-14T20:44:51.689Z,43.45
2018-07-14T20:47:20.564Z,43.32
2018-07-14T20:49:49.140Z,42.74
2018-07-14T20:52:18.001Z,44.27
2018-07-14T20:54:46.915Z,43.94
2018-07-14T20:57:15.548Z,44.01
2018-07-14T20:59:44.310Z,43.76
2018-07-14T21:02:13.227Z,44.01
2018-07-14T21:04:41.833Z,44.44
2018-07-14T21:07:10.484Z,44.06
2018-07-14T21:09:39.160Z,45.42
2018-07-14T21:12:08.393Z,44.75
2018-07-14T21:14:37.107Z,45.55
2018-07-14T21:17:19.415Z,45.85
2018-07-14T21:20:06.040Z,45.38
2018-07-14T21:23:01.272Z,45.72
2018-07-14T21:25:30.651Z,46.37
2018-07-14T21:27:59.371Z,45.90
2018-07-14T21:30:28.120Z,45.14
2018-07-14T21:32:56.853Z,45.90
2018-07-14T21:35:25.560Z,45.05
2018-07-14T21:37:54.546Z,45.54
2018-07-14T21:40:23.361Z,46.17
2018-07-14T21:42:52.193Z,45.84
2018-07-14T21:45:20.866Z,46.50
2018-07-14T21:47:49.616Z,46.27
2018-07-14T21:50:18.494Z,45.90
2018-07-14T21:52:47.674Z,45.59
2018-07-14T21:55:16.532Z,46.15
2018-07-14T21:57:45.198Z,46.79
2018-07-14T22:00:29.675Z,45.99
2018-07-14T22:02:58.497Z,46.50
2018-07-14T22:05:27.532Z,46.22
2018-07-14T22:07:56.417Z,47.17
2018-07-14T22:10:25.194Z,46.94
2018-07-14T22:12:54.322Z,46.54
2018-07-14T22:15:23.645Z,46.96
2018-07-14T22:17:53.075Z,46.23
2018-07-14T22:20:21.956Z,47.56
2018-07-14T22:22:50.868Z,47.69
2018-07-14T22:25:20.219Z,47.18
2018-07-14T22:27:49.013Z,48.11
2018-07-14T22:30:17.915Z,47.66
2018-07-14T22:32:46.853Z,48.94
2018-07-14T22:35:15.491Z,48.43
2018-07-14T22:37:44.510Z,49.67
2018-07-14T22:40:13.675Z,50.08
2018-07-14T22:42:42.656Z,50.10
2018-07-14T22:45:11.331Z,50.69
2018-07-14T22:47:40.286Z,50.84
2018-07-14T22:50:08.967Z,51.57
2018-07-14T22:52:37.787Z,50.99
2018-07-14T22:55:07.191Z,51.63
2018-07-14T22:57:35.968Z,51.53
2018-07-14T23:00:06.199Z,52.30
2018-07-14T23:02:35.131Z,51.98
2018-07-14T23:05:03.883Z,51.87
2018-07-14T23:07:32.655Z,51.69
2018-07-14T23:10:01.659Z,51.68
2018-07-14T23:12:30.361Z,52.07
2018-07-14T23:14:59.408Z,51.61
2018-07-14T23:17:27.980Z,52.26
2018-07-14T23:19:56.985Z,52.26
2018-07-14T23:22:25.700Z,51.23
2018-07-14T23:24:54.517Z,52.06
2018-07-14T23:27:23.625Z,51.92
2018-07-14T23:29:52.545Z,52.60
2018-07-14T23:32:21.347Z,52.14
2018-07-14T23:34:50.037Z,52.89
2018-07-14T23:37:18.733Z,52.74
2018-07-14T23:39:47.335Z,52.84
2018-07-14T23:42:16.076Z,52.80
2018-07-14T23:44:45.036Z,53.09
2018-07-14T23:49:47.687Z,53.82
2018-07-14T23:52:16.446Z,53.57
2018-07-14T23:54:45.448Z,53.95
2018-07-14T23:57:14.217Z,53.38
2018-07-14T23:59:43.158Z,53.46
